Time;durP1;ratioP1;P1;durP2;ratioP2;P2;SDS_P1;SDS_P2;PMS_P1;PMS_P2;Temp;Humidity;BMP_temperature;BMP_pressure;BME280_temperature;BME280_humidity;BME280_pressure;Samples;Min_cycle;Max_cycle;Signal;HPM_P1;HPM_P2
2021/04/15 00:01:40;;;;;;;3.23;1.97;;;5.90;97.30;;;;;;5038527;28;20433;-47
2021/04/15 00:04:08;;;;;;;3.00;2.13;;;5.90;97.90;;;;;;5039082;28;20449;-48
2021/04/15 00:06:37;;;;;;;4.00;1.83;;;5.90;98.00;;;;;;5038055;28;20429;-47
2021/04/15 00:09:09;;;;;;;2.57;1.20;;;5.90;98.50;;;;;;5031705;28;20450;-51
2021/04/15 00:11:37;;;;;;;3.13;1.50;;;5.80;98.50;;;;;;5033206;28;20454;-45
2021/04/15 00:14:06;;;;;;;3.50;2.00;;;5.80;98.80;;;;;;5029420;28;20440;-46
2021/04/15 00:16:33;;;;;;;2.43;1.80;;;5.80;98.80;;;;;;5033458;28;20445;-45
2021/04/15 00:19:02;;;;;;;3.30;1.80;;;5.80;99.00;;;;;;5038380;28;20455;-45
2021/04/15 00:21:28;;;;;;;4.60;2.17;;;5.80;99.10;;;;;;5035571;28;20441;-50
2021/04/15 00:23:55;;;;;;;2.17;1.50;;;5.80;99.50;;;;;;5035218;28;20489;-47
2021/04/15 00:26:24;;;;;;;3.87;1.57;;;5.80;99.50;;;;;;5018423;28;20473;-50
2021/04/15 00:28:51;;;;;;;2.83;1.20;;;5.80;99.60;;;;;;5018875;28;20480;-47
2021/04/15 00:31:18;;;;;;;2.00;1.77;;;5.90;99.30;;;;;;5018896;28;20446;-55
2021/04/15 00:33:46;;;;;;;2.93;1.50;;;5.80;99.50;;;;;;5018289;28;20451;-52
2021/04/15 00:36:13;;;;;;;2.77;1.63;;;5.80;99.40;;;;;;5018192;28;20438;-51
2021/04/15 05:31:33;;;;;;;8.53;2.90;;;5.10;99.90;;;;;;5725424;23;20247;-56
2021/04/15 05:34:01;;;;;;;4.97;3.00;;;5.10;99.90;;;;;;5024365;28;20448;-57
2021/04/15 05:36:32;;;;;;;6.30;3.03;;;5.10;99.90;;;;;;5035668;28;20444;-55
2021/04/15 05:39:01;;;;;;;9.87;3.30;;;5.20;99.90;;;;;;5027145;28;20499;-48
2021/04/15 05:41:30;;;;;;;7.10;3.73;;;5.20;99.90;;;;;;5034157;28;20495;-56
2021/04/15 05:44:01;;;;;;;8.83;3.53;;;5.20;99.90;;;;;;5033439;28;20429;-53
2021/04/15 05:46:37;;;;;;;7.10;4.27;;;5.20;99.90;;;;;;5025393;28;20480;-54
2021/04/15 05:49:05;;;;;;;6.30;3.40;;;5.30;99.90;;;;;;5030504;28;20476;-57
2021/04/15 05:51:39;;;;;;;7.90;3.83;;;5.40;99.90;;;;;;5032160;28;20452;-51
2021/04/15 05:54:10;;;;;;;9.30;4.10;;;5.50;99.90;;;;;;5024574;28;20448;-57
2021/04/15 05:56:49;;;;;;;4.43;3.00;;;5.60;99.90;;;;;;5027157;28;20451;-56
2021/04/15 05:59:22;;;;;;;6.67;3.13;;;5.60;99.90;;;;;;5017157;28;20445;-56
2021/04/15 06:01:54;;;;;;;7.70;3.40;;;5.70;99.90;;;;;;5032566;28;20441;-54
2021/04/15 06:04:29;;;;;;;8.63;2.00;;;5.80;99.90;;;;;;5036741;28;20460;-56
2021/04/15 06:06:56;;;;;;;6.83;3.30;;;5.80;99.90;;;;;;5029313;28;20436;-48
2021/04/15 06:09:25;;;;;;;4.70;3.33;;;5.90;99.90;;;;;;5028858;28;20817;-56
2021/04/15 06:12:02;;;;;;;3.63;3.00;;;5.90;99.90;;;;;;5020245;28;20441;-53
2021/04/15 06:14:37;;;;;;;5.10;2.60;;;6.00;99.90;;;;;;5004449;28;20870;-51
2021/04/15 06:17:26;;;;;;;5.07;3.00;;;6.00;99.90;;;;;;5018861;28;20448;-53
2021/04/15 06:19:56;;;;;;;5.57;2.83;;;6.10;99.90;;;;;;5019768;28;20441;-50
2021/04/15 06:22:25;;;;;;;5.80;3.10;;;6.10;99.90;;;;;;5022457;28;20520;-53
2021/04/15 06:24:58;;;;;;;5.40;2.70;;;6.20;99.90;;;;;;5022345;28;20515;-54
2021/04/15 06:27:25;;;;;;;4.43;2.30;;;6.20;99.90;;;;;;5027688;28;20484;-53
2021/04/15 06:29:59;;;;;;;4.63;2.80;;;6.20;99.90;;;;;;5032053;28;20452;-49
2021/04/15 06:32:32;;;;;;;3.60;2.50;;;6.30;99.90;;;;;;5022868;28;20489;-48
2021/04/15 06:34:59;;;;;;;4.47;2.63;;;6.30;99.90;;;;;;5023389;28;20455;-50
2021/04/15 06:37:34;;;;;;;6.00;2.20;;;6.40;99.90;;;;;;5023082;28;20449;-51
2021/04/15 06:40:18;;;;;;;7.77;2.77;;;6.50;99.90;;;;;;5023713;28;20468;-50
2021/04/15 06:42:59;;;;;;;4.83;2.50;;;6.50;99.90;;;;;;5022641;28;20471;-54
2021/04/15 06:45:39;;;;;;;6.03;2.90;;;6.60;99.90;;;;;;5021907;28;20449;-52
2021/04/15 06:48:33;;;;;;;3.00;2.20;;;6.60;99.90;;;;;;5012302;28;20476;-55
2021/04/15 06:51:26;;;;;;;4.30;1.90;;;6.60;99.90;;;;;;5018258;28;20441;-49
2021/04/15 06:54:08;;;;;;;2.50;1.83;;;6.60;99.90;;;;;;5015650;28;20782;-49
2021/04/15 06:56:48;;;;;;;6.97;3.27;;;6.60;99.90;;;;;;5014747;28;20561;-54
2021/04/15 06:59:38;;;;;;;4.10;2.63;;;6.70;99.90;;;;;;5016244;28;20445;-55
2021/04/15 07:02:09;;;;;;;3.20;2.30;;;6.80;99.90;;;;;;5024146;28;20442;-55
2021/04/15 07:04:44;;;;;;;7.03;2.70;;;6.90;99.90;;;;;;5023333;28;20456;-55
2021/04/15 07:07:14;;;;;;;3.40;2.23;;;6.90;99.90;;;;;;5025661;28;20466;-48
2021/04/15 07:10:26;;;;;;;7.80;2.30;;;7.00;99.90;;;;;;5024100;28;20532;-55
2021/04/15 07:13:26;;;;;;;4.03;2.40;;;7.10;99.90;;;;;;5020015;28;20452;-56
2021/04/15 07:16:24;;;;;;;4.10;2.70;;;7.10;99.90;;;;;;5023874;28;20454;-54
2021/04/15 07:19:35;;;;;;;5.03;2.20;;;7.20;99.90;;;;;;5026712;28;20497;-53
2021/04/15 07:22:27;;;;;;;3.97;2.07;;;7.30;99.90;;;;;;5028449;28;20445;-52
2021/04/15 07:25:09;;;;;;;4.97;2.27;;;7.40;99.90;;;;;;5024539;28;20461;-54
2021/04/15 07:27:54;;;;;;;3.90;2.07;;;7.40;99.90;;;;;;5028102;28;20495;-56
2021/04/15 07:30:38;;;;;;;4.47;1.97;;;7.40;99.90;;;;;;5026986;28;20441;-54
2021/04/15 07:33:26;;;;;;;4.17;2.00;;;7.50;99.90;;;;;;5021673;28;20489;-48
2021/04/15 07:36:34;;;;;;;5.50;2.27;;;7.70;99.90;;;;;;5024449;28;20829;-48
2021/04/15 07:39:16;;;;;;;11.53;5.47;;;7.80;99.90;;;;;;5020495;28;20514;-51
2021/04/15 07:42:24;;;;;;;11.30;4.63;;;8.00;99.90;;;;;;5018178;28;20561;-49
2021/04/15 07:44:54;;;;;;;2.50;1.70;;;8.20;99.90;;;;;;5015845;28;20453;-49
2021/04/15 07:47:54;;;;;;;3.30;2.03;;;8.30;99.90;;;;;;5028354;28;20452;-49
2021/04/15 07:50:56;;;;;;;3.73;1.80;;;8.40;99.90;;;;;;5024987;28;20433;-53
2021/04/15 07:54:02;;;;;;;6.50;2.30;;;8.60;99.90;;;;;;5019451;28;20449;-52
2021/04/15 07:57:05;;;;;;;2.57;1.90;;;8.80;99.90;;;;;;5003762;28;20828;-57
2021/04/15 07:59:46;;;;;;;6.93;2.30;;;9.40;99.90;;;;;;5027481;28;20488;-54
2021/04/15 08:02:31;;;;;;;3.17;1.10;;;9.60;99.90;;;;;;5027150;28;20432;-55
2021/04/15 08:05:26;;;;;;;2.90;1.83;;;9.80;99.90;;;;;;5028026;28;20449;-51
2021/04/15 08:08:21;;;;;;;2.43;1.43;;;10.30;99.90;;;;;;5017085;28;20507;-55
2021/04/15 08:11:10;;;;;;;3.17;1.70;;;11.00;98.00;;;;;;4994004;28;20480;-53
2021/04/15 08:14:06;;;;;;;6.73;3.50;;;11.40;93.90;;;;;;5019049;28;20789;-53
2021/04/15 08:16:54;;;;;;;3.27;1.50;;;11.80;91.60;;;;;;4973960;28;20482;-52
2021/04/15 08:19:59;;;;;;;2.33;1.37;;;12.00;88.70;;;;;;5005953;28;20437;-56
2021/04/15 08:22:41;;;;;;;2.47;1.37;;;12.10;85.10;;;;;;4979143;28;20465;-53
2021/04/15 08:25:14;;;;;;;3.30;2.07;;;12.50;81.60;;;;;;5013346;28;20460;-52
2021/04/15 08:27:59;;;;;;;5.40;1.50;;;12.70;79.70;;;;;;5016462;28;20476;-49
2021/04/15 08:30:43;;;;;;;2.23;1.40;;;12.80;77.60;;;;;;5014048;28;20489;-49
2021/04/15 08:33:25;;;;;;;2.13;1.43;;;12.90;75.20;;;;;;5015617;28;20445;-53
2021/04/15 08:36:17;;;;;;;4.00;1.83;;;13.10;72.90;;;;;;5017791;28;20436;-53
2021/04/15 08:38:58;;;;;;;3.77;2.53;;;13.10;72.30;;;;;;5012433;28;20453;-53
2021/04/15 08:41:36;;;;;;;2.03;1.40;;;13.00;70.90;;;;;;5015984;28;20503;-55
2021/04/15 08:44:24;;;;;;;3.63;1.67;;;13.00;69.60;;;;;;5016730;28;20461;-55
2021/04/15 08:47:06;;;;;;;3.30;1.60;;;12.90;68.40;;;;;;5015220;28;20505;-55
2021/04/15 08:49:40;;;;;;;3.17;1.13;;;12.70;67.70;;;;;;5021705;28;20473;-55
2021/04/15 10:17:49;;;;;;;1.50;0.80;;;12.60;48.40;;;;;;5832815;23;20923;-56
2021/04/15 10:20:46;;;;;;;1.10;0.70;;;12.40;48.80;;;;;;4982213;28;20469;-51
2021/04/15 10:23:42;;;;;;;2.17;1.00;;;12.10;48.20;;;;;;4988292;28;20482;-56
2021/04/15 10:26:27;;;;;;;1.37;0.83;;;11.90;47.90;;;;;;4994999;28;20447;-54
2021/04/15 10:29:13;;;;;;;2.87;1.23;;;11.70;48.50;;;;;;4990420;28;20498;-55
2021/04/15 10:32:08;;;;;;;1.93;1.30;;;11.50;47.70;;;;;;4986365;28;20452;-56
2021/04/15 10:35:02;;;;;;;1.20;0.70;;;11.30;48.40;;;;;;4986579;28;20478;-54
2021/04/15 10:37:57;;;;;;;1.63;0.90;;;11.30;48.80;;;;;;4991586;28;20438;-51
2021/04/15 10:40:49;;;;;;;1.80;1.40;;;11.20;49.00;;;;;;4988264;28;20487;-54
2021/04/15 10:43:52;;;;;;;1.50;1.03;;;11.00;49.50;;;;;;4982151;28;20458;-54
2021/04/15 10:46:45;;;;;;;3.10;1.50;;;10.90;50.80;;;;;;4977459;28;20521;-52
2021/04/15 10:49:31;;;;;;;8.77;3.40;;;10.80;50.20;;;;;;4992719;28;20487;-57
2021/04/15 10:52:01;;;;;;;9.07;4.30;;;10.70;50.70;;;;;;4985336;28;20455;-51
2021/04/15 10:54:30;;;;;;;2.90;1.33;;;10.50;51.20;;;;;;4991870;28;20458;-49
2021/04/15 10:57:01;;;;;;;1.87;1.17;;;10.50;51.30;;;;;;4992362;28;20447;-50
2021/04/15 10:59:38;;;;;;;1.60;0.97;;;10.50;51.50;;;;;;4989667;28;20452;-48
2021/04/15 11:02:34;;;;;;;4.40;1.03;;;10.50;52.20;;;;;;4972639;29;20948;-55
2021/04/15 11:05:21;;;;;;;1.50;1.00;;;10.60;52.30;;;;;;4976266;29;20451;-54
2021/04/15 11:07:50;;;;;;;2.73;1.17;;;10.80;52.30;;;;;;4963743;28;20582;-54
2021/04/15 11:10:26;;;;;;;2.13;1.30;;;10.80;54.10;;;;;;5247643;23;20489;-56
2021/04/15 11:15:40;;;;;;;2.67;1.10;;;10.90;52.50;;;;;;5968080;23;20360;-50
2021/04/15 11:18:08;;;;;;;1.97;1.00;;;10.80;52.70;;;;;;5302699;23;20491;-52
2021/04/15 11:56:50;;;;;;;2.13;1.87;;;10.20;58.10;;;;;;5402766;23;20485;-50
2021/04/15 11:59:22;;;;;;;3.30;2.53;;;10.20;58.10;;;;;;5004797;28;20778;-54
2021/04/15 23:23:54;;;;;;;2.77;1.90;;;5.80;99.90;;;;;;5092633;23;20480;-50
2021/04/15 23:26:21;;;;;;;2.13;1.70;;;5.80;99.90;;;;;;5024520;28;20449;-50
2021/04/15 23:28:48;;;;;;;2.90;1.90;;;5.80;99.90;;;;;;5011435;28;20547;-49
2021/04/15 23:31:14;;;;;;;10.20;2.40;;;5.90;99.90;;;;;;5012034;28;20446;-50
2021/04/15 23:33:41;;;;;;;2.87;2.03;;;5.80;99.90;;;;;;5009268;28;20450;-45
2021/04/15 23:36:08;;;;;;;2.97;1.70;;;5.80;99.90;;;;;;4998619;28;20453;-50
2021/04/15 23:38:35;;;;;;;2.97;1.90;;;5.80;99.90;;;;;;5014690;28;20445;-51
2021/04/15 23:41:04;;;;;;;5.10;1.50;;;5.90;99.90;;;;;;5018129;28;20464;-49
2021/04/15 23:43:31;;;;;;;2.87;1.73;;;5.90;99.90;;;;;;5011985;28;20446;-48
2021/04/15 23:45:58;;;;;;;4.60;1.80;;;5.90;99.90;;;;;;5013155;28;20462;-50
2021/04/15 23:48:26;;;;;;;3.23;1.47;;;5.90;99.90;;;;;;5016927;28;20473;-47
2021/04/15 23:50:55;;;;;;;4.27;1.27;;;5.80;99.90;;;;;;5011510;28;20517;-53
2021/04/15 23:53:22;;;;;;;3.40;1.50;;;5.90;99.90;;;;;;5019461;28;20445;-48
2021/04/15 23:55:50;;;;;;;2.97;1.60;;;5.90;99.90;;;;;;5024211;28;20516;-49
2021/04/15 23:58:17;;;;;;;3.43;2.00;;;6.00;99.90;;;;;;5024042;28;20535;-50
